sensor_id;sensor_type;location;lat;lon;timestamp;P1;durP1;ratioP1;P2;durP2;ratioP2
59040;SDS011;44825;53.200;6.448;2023-07-31T00:01:34;6.10;;;4.10;;
59040;SDS011;44825;53.200;6.448;2023-07-31T00:04:00;7.68;;;4.07;;
59040;SDS011;44825;53.200;6.448;2023-07-31T00:06:26;6.47;;;3.72;;
59040;SDS011;44825;53.200;6.448;2023-07-31T00:08:52;8.48;;;3.67;;
59040;SDS011;44825;53.200;6.448;2023-07-31T00:11:18;6.07;;;3.70;;
59040;SDS011;44825;53.200;6.448;2023-07-31T00:13:44;6.63;;;3.45;;
59040;SDS011;44825;53.200;6.448;2023-07-31T00:16:10;6.03;;;3.03;;
59040;SDS011;44825;53.200;6.448;2023-07-31T00:18:36;8.98;;;3.55;;
59040;SDS011;44825;53.200;6.448;2023-07-31T00:21:02;5.15;;;3.13;;
59040;SDS011;44825;53.200;6.448;2023-07-31T00:23:28;5.85;;;3.15;;
59040;SDS011;44825;53.200;6.448;2023-07-31T00:25:54;4.47;;;2.22;;
59040;SDS011;44825;53.200;6.448;2023-07-31T00:28:20;4.45;;;2.45;;
59040;SDS011;44825;53.200;6.448;2023-07-31T00:30:46;5.05;;;2.10;;
59040;SDS011;44825;53.200;6.448;2023-07-31T00:33:12;5.75;;;2.55;;
59040;SDS011;44825;53.200;6.448;2023-07-31T00:35:38;5.45;;;2.47;;
59040;SDS011;44825;53.200;6.448;2023-07-31T00:38:04;7.18;;;2.95;;
59040;SDS011;44825;53.200;6.448;2023-07-31T00:40:34;5.75;;;2.60;;
59040;SDS011;44825;53.200;6.448;2023-07-31T00:43:01;5.00;;;2.20;;
59040;SDS011;44825;53.200;6.448;2023-07-31T00:45:28;13.50;;;3.30;;
59040;SDS011;44825;53.200;6.448;2023-07-31T00:47:54;5.68;;;2.00;;
59040;SDS011;44825;53.200;6.448;2023-07-31T00:50:22;4.60;;;2.45;;
59040;SDS011;44825;53.200;6.448;2023-07-31T00:52:48;3.92;;;2.00;;
59040;SDS011;44825;53.200;6.448;2023-07-31T00:55:14;4.50;;;2.22;;
59040;SDS011;44825;53.200;6.448;2023-07-31T00:57:40;5.90;;;2.55;;
59040;SDS011;44825;53.200;6.448;2023-07-31T01:00:07;4.20;;;2.25;;
59040;SDS011;44825;53.200;6.448;2023-07-31T01:02:33;5.50;;;2.20;;
59040;SDS011;44825;53.200;6.448;2023-07-31T01:05:00;5.57;;;2.35;;
59040;SDS011;44825;53.200;6.448;2023-07-31T01:07:31;4.38;;;2.30;;
59040;SDS011;44825;53.200;6.448;2023-07-31T01:12:32;5.32;;;1.58;;
59040;SDS011;44825;53.200;6.448;2023-07-31T01:15:04;3.45;;;1.55;;
59040;SDS011;44825;53.200;6.448;2023-07-31T01:17:30;4.82;;;1.42;;
59040;SDS011;44825;53.200;6.448;2023-07-31T01:19:57;4.32;;;2.13;;
59040;SDS011;44825;53.200;6.448;2023-07-31T01:27:28;9.75;;;2.85;;
59040;SDS011;44825;53.200;6.448;2023-07-31T01:30:00;4.10;;;2.38;;
59040;SDS011;44825;53.200;6.448;2023-07-31T01:34:56;4.28;;;2.42;;
59040;SDS011;44825;53.200;6.448;2023-07-31T01:37:28;5.28;;;2.88;;
59040;SDS011;44825;53.200;6.448;2023-07-31T01:39:54;6.43;;;2.72;;
59040;SDS011;44825;53.200;6.448;2023-07-31T01:42:20;5.65;;;3.30;;
59040;SDS011;44825;53.200;6.448;2023-07-31T01:44:46;5.47;;;2.58;;
59040;SDS011;44825;53.200;6.448;2023-07-31T01:47:12;9.95;;;2.78;;
59040;SDS011;44825;53.200;6.448;2023-07-31T01:49:38;5.90;;;2.45;;
59040;SDS011;44825;53.200;6.448;2023-07-31T01:52:05;6.18;;;2.50;;
59040;SDS011;44825;53.200;6.448;2023-07-31T01:54:31;4.95;;;1.88;;
59040;SDS011;44825;53.200;6.448;2023-07-31T01:56:58;4.00;;;1.70;;
59040;SDS011;44825;53.200;6.448;2023-07-31T01:59:24;5.10;;;2.05;;
59040;SDS011;44825;53.200;6.448;2023-07-31T02:01:50;3.88;;;1.80;;
59040;SDS011;44825;53.200;6.448;2023-07-31T02:04:16;5.80;;;2.25;;
59040;SDS011;44825;53.200;6.448;2023-07-31T02:06:43;6.85;;;1.75;;
59040;SDS011;44825;53.200;6.448;2023-07-31T02:09:10;4.13;;;2.00;;
59040;SDS011;44825;53.200;6.448;2023-07-31T02:11:36;4.65;;;1.92;;
59040;SDS011;44825;53.200;6.448;2023-07-31T02:14:02;3.22;;;1.55;;
59040;SDS011;44825;53.200;6.448;2023-07-31T02:16:28;5.32;;;1.75;;
59040;SDS011;44825;53.200;6.448;2023-07-31T02:18:54;5.05;;;1.90;;
59040;SDS011;44825;53.200;6.448;2023-07-31T02:21:20;5.07;;;1.75;;
59040;SDS011;44825;53.200;6.448;2023-07-31T02:23:46;3.67;;;1.83;;
59040;SDS011;44825;53.200;6.448;2023-07-31T02:26:12;4.78;;;1.88;;
59040;SDS011;44825;53.200;6.448;2023-07-31T02:28:38;3.55;;;1.70;;
59040;SDS011;44825;53.200;6.448;2023-07-31T02:31:08;3.17;;;1.77;;
59040;SDS011;44825;53.200;6.448;2023-07-31T02:33:34;4.03;;;1.85;;
59040;SDS011;44825;53.200;6.448;2023-07-31T02:36:00;3.70;;;1.42;;
59040;SDS011;44825;53.200;6.448;2023-07-31T02:38:26;4.75;;;1.85;;
59040;SDS011;44825;53.200;6.448;2023-07-31T02:40:52;3.33;;;1.60;;
59040;SDS011;44825;53.200;6.448;2023-07-31T02:43:18;3.97;;;1.80;;
59040;SDS011;44825;53.200;6.448;2023-07-31T02:45:44;3.38;;;1.45;;
59040;SDS011;44825;53.200;6.448;2023-07-31T02:48:10;3.20;;;1.67;;
59040;SDS011;44825;53.200;6.448;2023-07-31T02:50:36;4.40;;;1.38;;
59040;SDS011;44825;53.200;6.448;2023-07-31T02:53:02;3.63;;;1.17;;
59040;SDS011;44825;53.200;6.448;2023-07-31T02:55:29;3.08;;;1.10;;
59040;SDS011;44825;53.200;6.448;2023-07-31T02:57:55;5.63;;;1.50;;
59040;SDS011;44825;53.200;6.448;2023-07-31T03:00:21;7.40;;;1.52;;
59040;SDS011;44825;53.200;6.448;2023-07-31T03:02:47;7.07;;;1.40;;
59040;SDS011;44825;53.200;6.448;2023-07-31T03:05:13;3.35;;;1.42;;
59040;SDS011;44825;53.200;6.448;2023-07-31T03:07:39;3.45;;;1.30;;
59040;SDS011;44825;53.200;6.448;2023-07-31T03:10:05;3.35;;;1.30;;
59040;SDS011;44825;53.200;6.448;2023-07-31T03:12:31;3.25;;;1.30;;
59040;SDS011;44825;53.200;6.448;2023-07-31T03:14:58;4.53;;;1.10;;
59040;SDS011;44825;53.200;6.448;2023-07-31T03:17:24;4.07;;;1.20;;
59040;SDS011;44825;53.200;6.448;2023-07-31T03:19:50;4.10;;;1.10;;
59040;SDS011;44825;53.200;6.448;2023-07-31T03:22:16;3.85;;;1.05;;
59040;SDS011;44825;53.200;6.448;2023-07-31T03:24:42;2.05;;;0.90;;
59040;SDS011;44825;53.200;6.448;2023-07-31T03:27:08;4.38;;;1.05;;
59040;SDS011;44825;53.200;6.448;2023-07-31T03:29:34;5.40;;;1.45;;
59040;SDS011;44825;53.200;6.448;2023-07-31T03:32:00;2.90;;;0.95;;
59040;SDS011;44825;53.200;6.448;2023-07-31T03:34:26;8.20;;;1.52;;
59040;SDS011;44825;53.200;6.448;2023-07-31T03:36:52;3.63;;;1.15;;
59040;SDS011;44825;53.200;6.448;2023-07-31T03:39:18;5.63;;;1.60;;
59040;SDS011;44825;53.200;6.448;2023-07-31T03:41:44;4.93;;;1.00;;
59040;SDS011;44825;53.200;6.448;2023-07-31T03:44:10;4.43;;;1.15;;
59040;SDS011;44825;53.200;6.448;2023-07-31T03:46:36;2.97;;;1.00;;
59040;SDS011;44825;53.200;6.448;2023-07-31T03:49:02;3.38;;;1.08;;
59040;SDS011;44825;53.200;6.448;2023-07-31T03:51:28;4.53;;;1.42;;
59040;SDS011;44825;53.200;6.448;2023-07-31T03:53:54;4.90;;;1.40;;
59040;SDS011;44825;53.200;6.448;2023-07-31T03:56:20;2.92;;;1.35;;
59040;SDS011;44825;53.200;6.448;2023-07-31T03:58:47;3.88;;;1.30;;
59040;SDS011;44825;53.200;6.448;2023-07-31T04:01:13;5.45;;;1.20;;
59040;SDS011;44825;53.200;6.448;2023-07-31T04:03:39;3.60;;;1.10;;
59040;SDS011;44825;53.200;6.448;2023-07-31T04:06:05;3.05;;;1.23;;
59040;SDS011;44825;53.200;6.448;2023-07-31T04:08:32;4.97;;;1.20;;
59040;SDS011;44825;53.200;6.448;2023-07-31T04:10:58;4.38;;;1.17;;
59040;SDS011;44825;53.200;6.448;2023-07-31T04:13:24;2.42;;;1.00;;
59040;SDS011;44825;53.200;6.448;2023-07-31T04:15:52;2.58;;;0.90;;
59040;SDS011;44825;53.200;6.448;2023-07-31T04:18:19;3.75;;;0.95;;
59040;SDS011;44825;53.200;6.448;2023-07-31T04:20:45;3.63;;;0.95;;
59040;SDS011;44825;53.200;6.448;2023-07-31T04:23:11;3.40;;;1.05;;
59040;SDS011;44825;53.200;6.448;2023-07-31T04:25:37;2.58;;;0.80;;
59040;SDS011;44825;53.200;6.448;2023-07-31T04:28:03;2.10;;;0.88;;
59040;SDS011;44825;53.200;6.448;2023-07-31T04:30:29;1.77;;;0.70;;
59040;SDS011;44825;53.200;6.448;2023-07-31T04:32:56;2.15;;;0.68;;
59040;SDS011;44825;53.200;6.448;2023-07-31T04:35:22;1.40;;;0.90;;
59040;SDS011;44825;53.200;6.448;2023-07-31T04:37:48;3.75;;;0.95;;
59040;SDS011;44825;53.200;6.448;2023-07-31T04:40:14;3.00;;;0.80;;
59040;SDS011;44825;53.200;6.448;2023-07-31T04:42:40;3.35;;;0.85;;
59040;SDS011;44825;53.200;6.448;2023-07-31T04:45:08;2.00;;;0.70;;
59040;SDS011;44825;53.200;6.448;2023-07-31T04:47:34;2.92;;;0.60;;
59040;SDS011;44825;53.200;6.448;2023-07-31T04:50:00;2.40;;;0.90;;
59040;SDS011;44825;53.200;6.448;2023-07-31T04:52:26;3.08;;;0.88;;
59040;SDS011;44825;53.200;6.448;2023-07-31T04:54:52;3.10;;;0.80;;
59040;SDS011;44825;53.200;6.448;2023-07-31T04:57:18;4.80;;;1.20;;
59040;SDS011;44825;53.200;6.448;2023-07-31T04:59:44;3.35;;;0.90;;
59040;SDS011;44825;53.200;6.448;2023-07-31T05:02:11;2.92;;;0.90;;
59040;SDS011;44825;53.200;6.448;2023-07-31T05:04:38;5.63;;;0.90;;
59040;SDS011;44825;53.200;6.448;2023-07-31T05:07:07;3.38;;;0.82;;
59040;SDS011;44825;53.200;6.448;2023-07-31T05:09:33;5.97;;;0.90;;
59040;SDS011;44825;53.200;6.448;2023-07-31T05:12:00;5.18;;;1.23;;
59040;SDS011;44825;53.200;6.448;2023-07-31T05:14:26;2.13;;;0.57;;
59040;SDS011;44825;53.200;6.448;2023-07-31T05:16:52;1.27;;;0.60;;
59040;SDS011;44825;53.200;6.448;2023-07-31T05:19:18;1.20;;;0.40;;
59040;SDS011;44825;53.200;6.448;2023-07-31T05:21:44;2.33;;;0.60;;
59040;SDS011;44825;53.200;6.448;2023-07-31T05:24:10;2.47;;;0.73;;
59040;SDS011;44825;53.200;6.448;2023-07-31T05:26:36;4.10;;;0.68;;
59040;SDS011;44825;53.200;6.448;2023-07-31T05:29:03;2.22;;;0.88;;
59040;SDS011;44825;53.200;6.448;2023-07-31T05:31:29;1.75;;;0.70;;
59040;SDS011;44825;53.200;6.448;2023-07-31T05:33:57;1.90;;;0.70;;
59040;SDS011;44825;53.200;6.448;2023-07-31T05:36:23;2.63;;;0.80;;
59040;SDS011;44825;53.200;6.448;2023-07-31T05:38:49;3.30;;;0.95;;
59040;SDS011;44825;53.200;6.448;2023-07-31T05:41:15;8.70;;;1.08;;
59040;SDS011;44825;53.200;6.448;2023-07-31T05:43:43;2.15;;;0.85;;
59040;SDS011;44825;53.200;6.448;2023-07-31T05:46:09;4.55;;;1.15;;
59040;SDS011;44825;53.200;6.448;2023-07-31T05:48:36;3.13;;;0.95;;
59040;SDS011;44825;53.200;6.448;2023-07-31T05:51:02;2.22;;;1.05;;
59040;SDS011;44825;53.200;6.448;2023-07-31T05:53:28;2.50;;;0.95;;
59040;SDS011;44825;53.200;6.448;2023-07-31T05:55:55;1.13;;;0.63;;
59040;SDS011;44825;53.200;6.448;2023-07-31T05:58:21;1.48;;;0.70;;
59040;SDS011;44825;53.200;6.448;2023-07-31T06:00:47;2.40;;;0.93;;
59040;SDS011;44825;53.200;6.448;2023-07-31T06:03:13;2.45;;;0.90;;
59040;SDS011;44825;53.200;6.448;2023-07-31T06:05:39;3.13;;;1.20;;
59040;SDS011;44825;53.200;6.448;2023-07-31T06:08:05;5.13;;;1.30;;
59040;SDS011;44825;53.200;6.448;2023-07-31T06:10:31;4.63;;;1.17;;
59040;SDS011;44825;53.200;6.448;2023-07-31T06:12:57;3.88;;;1.55;;
59040;SDS011;44825;53.200;6.448;2023-07-31T06:15:23;7.75;;;1.85;;
59040;SDS011;44825;53.200;6.448;2023-07-31T06:17:49;5.13;;;1.90;;
59040;SDS011;44825;53.200;6.448;2023-07-31T06:20:15;6.95;;;2.45;;
59040;SDS011;44825;53.200;6.448;2023-07-31T06:22:41;10.25;;;2.40;;
59040;SDS011;44825;53.200;6.448;2023-07-31T06:25:08;7.93;;;2.90;;
59040;SDS011;44825;53.200;6.448;2023-07-31T06:27:34;13.57;;;3.20;;
59040;SDS011;44825;53.200;6.448;2023-07-31T06:30:00;14.68;;;4.13;;
59040;SDS011;44825;53.200;6.448;2023-07-31T06:32:26;12.25;;;4.07;;
59040;SDS011;44825;53.200;6.448;2023-07-31T06:34:52;21.50;;;4.82;;
59040;SDS011;44825;53.200;6.448;2023-07-31T06:37:19;18.58;;;4.93;;
59040;SDS011;44825;53.200;6.448;2023-07-31T06:39:45;17.67;;;5.03;;
59040;SDS011;44825;53.200;6.448;2023-07-31T06:42:11;15.98;;;5.05;;
59040;SDS011;44825;53.200;6.448;2023-07-31T06:44:37;22.70;;;5.88;;
59040;SDS011;44825;53.200;6.448;2023-07-31T06:47:03;19.98;;;5.47;;
59040;SDS011;44825;53.200;6.448;2023-07-31T06:49:29;16.77;;;5.40;;
59040;SDS011;44825;53.200;6.448;2023-07-31T06:51:55;16.42;;;5.57;;
59040;SDS011;44825;53.200;6.448;2023-07-31T06:54:21;16.55;;;5.10;;
59040;SDS011;44825;53.200;6.448;2023-07-31T06:56:47;18.75;;;5.55;;
59040;SDS011;44825;53.200;6.448;2023-07-31T06:59:13;17.42;;;5.68;;
59040;SDS011;44825;53.200;6.448;2023-07-31T07:01:39;20.58;;;5.95;;
59040;SDS011;44825;53.200;6.448;2023-07-31T07:04:05;17.65;;;4.88;;
59040;SDS011;44825;53.200;6.448;2023-07-31T07:06:32;20.90;;;6.22;;
59040;SDS011;44825;53.200;6.448;2023-07-31T07:08:58;16.65;;;5.13;;
59040;SDS011;44825;53.200;6.448;2023-07-31T07:11:24;14.85;;;6.13;;
59040;SDS011;44825;53.200;6.448;2023-07-31T07:13:50;18.27;;;5.93;;
59040;SDS011;44825;53.200;6.448;2023-07-31T07:16:17;16.52;;;5.07;;
59040;SDS011;44825;53.200;6.448;2023-07-31T07:18:43;20.45;;;5.05;;
59040;SDS011;44825;53.200;6.448;2023-07-31T07:21:09;16.63;;;5.45;;
59040;SDS011;44825;53.200;6.448;2023-07-31T07:23:39;14.13;;;5.07;;
59040;SDS011;44825;53.200;6.448;2023-07-31T07:26:05;15.10;;;4.68;;
59040;SDS011;44825;53.200;6.448;2023-07-31T07:28:31;13.90;;;4.10;;
59040;SDS011;44825;53.200;6.448;2023-07-31T07:30:57;12.80;;;4.43;;
59040;SDS011;44825;53.200;6.448;2023-07-31T07:33:23;11.80;;;3.53;;
59040;SDS011;44825;53.200;6.448;2023-07-31T07:35:50;18.92;;;5.00;;
59040;SDS011;44825;53.200;6.448;2023-07-31T07:38:16;13.50;;;4.13;;
59040;SDS011;44825;53.200;6.448;2023-07-31T07:40:44;11.73;;;4.13;;
59040;SDS011;44825;53.200;6.448;2023-07-31T07:43:11;12.65;;;3.90;;
59040;SDS011;44825;53.200;6.448;2023-07-31T07:45:38;13.05;;;4.55;;
59040;SDS011;44825;53.200;6.448;2023-07-31T07:48:04;11.50;;;4.40;;
59040;SDS011;44825;53.200;6.448;2023-07-31T07:50:30;11.45;;;3.35;;
59040;SDS011;44825;53.200;6.448;2023-07-31T07:52:57;9.45;;;3.78;;
59040;SDS011;44825;53.200;6.448;2023-07-31T07:55:23;13.95;;;3.60;;
59040;SDS011;44825;53.200;6.448;2023-07-31T07:57:49;7.88;;;2.58;;
59040;SDS011;44825;53.200;6.448;2023-07-31T08:00:15;7.57;;;2.20;;
59040;SDS011;44825;53.200;6.448;2023-07-31T08:02:42;4.65;;;1.50;;
59040;SDS011;44825;53.200;6.448;2023-07-31T08:05:08;4.18;;;1.30;;
59040;SDS011;44825;53.200;6.448;2023-07-31T08:07:34;3.83;;;1.17;;
59040;SDS011;44825;53.200;6.448;2023-07-31T08:10:03;5.03;;;1.60;;
59040;SDS011;44825;53.200;6.448;2023-07-31T08:12:29;3.65;;;1.65;;
59040;SDS011;44825;53.200;6.448;2023-07-31T08:14:55;3.15;;;0.93;;
59040;SDS011;44825;53.200;6.448;2023-07-31T08:17:22;2.60;;;0.90;;
59040;SDS011;44825;53.200;6.448;2023-07-31T08:19:48;4.80;;;0.98;;
59040;SDS011;44825;53.200;6.448;2023-07-31T08:22:14;4.93;;;1.35;;
59040;SDS011;44825;53.200;6.448;2023-07-31T08:24:40;4.72;;;1.25;;
59040;SDS011;44825;53.200;6.448;2023-07-31T08:27:06;4.40;;;1.25;;
59040;SDS011;44825;53.200;6.448;2023-07-31T08:29:32;4.93;;;1.65;;
59040;SDS011;44825;53.200;6.448;2023-07-31T08:31:58;3.80;;;1.10;;
59040;SDS011;44825;53.200;6.448;2023-07-31T08:34:24;4.07;;;1.30;;
59040;SDS011;44825;53.200;6.448;2023-07-31T08:36:50;4.47;;;1.80;;
59040;SDS011;44825;53.200;6.448;2023-07-31T08:39:16;5.60;;;1.58;;
59040;SDS011;44825;53.200;6.448;2023-07-31T08:41:42;3.13;;;1.10;;
59040;SDS011;44825;53.200;6.448;2023-07-31T08:44:08;2.63;;;1.10;;
59040;SDS011;44825;53.200;6.448;2023-07-31T08:46:36;4.10;;;1.13;;
59040;SDS011;44825;53.200;6.448;2023-07-31T08:49:04;2.60;;;0.90;;
59040;SDS011;44825;53.200;6.448;2023-07-31T08:51:36;3.80;;;1.05;;
59040;SDS011;44825;53.200;6.448;2023-07-31T08:54:02;3.50;;;1.10;;
59040;SDS011;44825;53.200;6.448;2023-07-31T08:56:31;3.63;;;0.98;;
59040;SDS011;44825;53.200;6.448;2023-07-31T08:59:00;2.63;;;0.80;;
59040;SDS011;44825;53.200;6.448;2023-07-31T09:01:28;3.78;;;0.95;;
59040;SDS011;44825;53.200;6.448;2023-07-31T09:03:56;2.40;;;1.08;;
59040;SDS011;44825;53.200;6.448;2023-07-31T09:06:23;3.70;;;1.17;;
59040;SDS011;44825;53.200;6.448;2023-07-31T09:08:51;1.98;;;1.00;;
59040;SDS011;44825;53.200;6.448;2023-07-31T09:11:17;2.45;;;1.00;;
59040;SDS011;44825;53.200;6.448;2023-07-31T09:13:44;4.75;;;1.25;;
59040;SDS011;44825;53.200;6.448;2023-07-31T09:16:10;2.08;;;0.80;;
59040;SDS011;44825;53.200;6.448;2023-07-31T09:18:52;1.58;;;0.75;;
59040;SDS011;44825;53.200;6.448;2023-07-31T09:21:19;2.22;;;0.75;;
59040;SDS011;44825;53.200;6.448;2023-07-31T09:23:46;2.00;;;0.80;;
59040;SDS011;44825;53.200;6.448;2023-07-31T09:26:28;0.70;;;0.60;;
59040;SDS011;44825;53.200;6.448;2023-07-31T09:28:55;0.80;;;0.50;;
59040;SDS011;44825;53.200;6.448;2023-07-31T09:34:06;5.95;;;0.57;;
59040;SDS011;44825;53.200;6.448;2023-07-31T09:36:32;0.98;;;0.43;;
59040;SDS011;44825;53.200;6.448;2023-07-31T09:39:02;2.65;;;0.52;;
59040;SDS011;44825;53.200;6.448;2023-07-31T09:41:29;0.93;;;0.30;;
59040;SDS011;44825;53.200;6.448;2023-07-31T09:43:55;0.88;;;0.30;;
59040;SDS011;44825;53.200;6.448;2023-07-31T09:46:21;0.80;;;0.20;;
59040;SDS011;44825;53.200;6.448;2023-07-31T09:48:47;0.98;;;0.40;;
59040;SDS011;44825;53.200;6.448;2023-07-31T09:51:13;1.30;;;0.30;;
59040;SDS011;44825;53.200;6.448;2023-07-31T09:53:40;0.52;;;0.28;;
59040;SDS011;44825;53.200;6.448;2023-07-31T09:56:06;0.70;;;0.20;;
59040;SDS011;44825;53.200;6.448;2023-07-31T09:58:33;0.52;;;0.17;;
59040;SDS011;44825;53.200;6.448;2023-07-31T10:01:01;0.63;;;0.20;;
59040;SDS011;44825;53.200;6.448;2023-07-31T10:03:28;0.35;;;0.20;;
59040;SDS011;44825;53.200;6.448;2023-07-31T10:05:55;0.52;;;0.25;;
59040;SDS011;44825;53.200;6.448;2023-07-31T10:08:23;2.10;;;0.22;;
59040;SDS011;44825;53.200;6.448;2023-07-31T10:10:54;0.73;;;0.20;;
59040;SDS011;44825;53.200;6.448;2023-07-31T10:13:24;0.88;;;0.20;;
59040;SDS011;44825;53.200;6.448;2023-07-31T10:15:50;3.40;;;0.28;;
59040;SDS011;44825;53.200;6.448;2023-07-31T10:18:16;2.55;;;0.45;;
59040;SDS011;44825;53.200;6.448;2023-07-31T10:20:44;1.80;;;0.30;;
59040;SDS011;44825;53.200;6.448;2023-07-31T10:23:10;1.25;;;0.20;;
59040;SDS011;44825;53.200;6.448;2023-07-31T10:25:36;0.30;;;0.10;;
59040;SDS011;44825;53.200;6.448;2023-07-31T10:28:02;0.93;;;0.43;;
59040;SDS011;44825;53.200;6.448;2023-07-31T10:30:29;1.15;;;0.20;;
59040;SDS011;44825;53.200;6.448;2023-07-31T10:32:56;0.93;;;0.28;;
59040;SDS011;44825;53.200;6.448;2023-07-31T10:35:22;3.53;;;0.63;;
59040;SDS011;44825;53.200;6.448;2023-07-31T10:37:48;2.25;;;0.40;;
59040;SDS011;44825;53.200;6.448;2023-07-31T10:40:16;2.28;;;0.63;;
59040;SDS011;44825;53.200;6.448;2023-07-31T10:42:49;2.33;;;0.47;;
59040;SDS011;44825;53.200;6.448;2023-07-31T10:45:24;4.25;;;0.90;;
59040;SDS011;44825;53.200;6.448;2023-07-31T10:48:00;1.38;;;0.82;;
59040;SDS011;44825;53.200;6.448;2023-07-31T10:50:27;0.57;;;0.20;;
59040;SDS011;44825;53.200;6.448;2023-07-31T10:52:54;2.03;;;0.40;;
59040;SDS011;44825;53.200;6.448;2023-07-31T10:57:50;0.70;;;0.40;;
59040;SDS011;44825;53.200;6.448;2023-07-31T11:00:20;1.23;;;0.40;;
59040;SDS011;44825;53.200;6.448;2023-07-31T11:02:58;2.05;;;0.80;;
59040;SDS011;44825;53.200;6.448;2023-07-31T11:05:40;1.40;;;0.65;;
59040;SDS011;44825;53.200;6.448;2023-07-31T11:08:16;1.73;;;0.70;;
59040;SDS011;44825;53.200;6.448;2023-07-31T11:10:44;1.73;;;0.70;;
59040;SDS011;44825;53.200;6.448;2023-07-31T11:13:11;3.42;;;0.80;;
59040;SDS011;44825;53.200;6.448;2023-07-31T11:15:37;2.90;;;0.98;;
59040;SDS011;44825;53.200;6.448;2023-07-31T11:18:03;4.30;;;1.05;;
59040;SDS011;44825;53.200;6.448;2023-07-31T11:20:33;2.85;;;0.75;;
59040;SDS011;44825;53.200;6.448;2023-07-31T11:23:03;2.90;;;0.93;;
59040;SDS011;44825;53.200;6.448;2023-07-31T11:25:30;1.92;;;0.63;;
59040;SDS011;44825;53.200;6.448;2023-07-31T11:27:56;3.05;;;0.90;;
59040;SDS011;44825;53.200;6.448;2023-07-31T11:30:23;3.13;;;0.73;;
59040;SDS011;44825;53.200;6.448;2023-07-31T11:32:49;2.85;;;1.20;;
59040;SDS011;44825;53.200;6.448;2023-07-31T11:35:16;5.40;;;0.90;;
59040;SDS011;44825;53.200;6.448;2023-07-31T11:37:43;4.82;;;0.77;;
59040;SDS011;44825;53.200;6.448;2023-07-31T11:40:09;2.38;;;0.95;;
59040;SDS011;44825;53.200;6.448;2023-07-31T11:42:36;2.60;;;0.90;;
59040;SDS011;44825;53.200;6.448;2023-07-31T11:45:05;5.03;;;0.82;;
59040;SDS011;44825;53.200;6.448;2023-07-31T11:47:32;2.47;;;0.75;;
59040;SDS011;44825;53.200;6.448;2023-07-31T11:50:00;1.58;;;0.73;;
59040;SDS011;44825;53.200;6.448;2023-07-31T11:52:27;1.95;;;0.60;;
59040;SDS011;44825;53.200;6.448;2023-07-31T11:54:53;2.92;;;0.70;;
59040;SDS011;44825;53.200;6.448;2023-07-31T11:57:19;2.75;;;0.80;;
59040;SDS011;44825;53.200;6.448;2023-07-31T11:59:45;1.50;;;0.70;;
59040;SDS011;44825;53.200;6.448;2023-07-31T12:02:12;2.78;;;0.82;;
59040;SDS011;44825;53.200;6.448;2023-07-31T12:04:38;3.05;;;1.08;;
59040;SDS011;44825;53.200;6.448;2023-07-31T12:07:04;3.03;;;1.15;;
59040;SDS011;44825;53.200;6.448;2023-07-31T12:09:30;8.10;;;1.10;;
59040;SDS011;44825;53.200;6.448;2023-07-31T12:11:56;3.80;;;1.40;;
59040;SDS011;44825;53.200;6.448;2023-07-31T12:14:26;2.85;;;1.23;;
59040;SDS011;44825;53.200;6.448;2023-07-31T12:16:56;4.45;;;1.00;;
59040;SDS011;44825;53.200;6.448;2023-07-31T12:19:22;2.30;;;1.00;;
59040;SDS011;44825;53.200;6.448;2023-07-31T12:21:49;2.95;;;1.00;;
59040;SDS011;44825;53.200;6.448;2023-07-31T12:24:17;1.77;;;0.85;;
59040;SDS011;44825;53.200;6.448;2023-07-31T12:26:45;4.50;;;1.38;;
59040;SDS011;44825;53.200;6.448;2023-07-31T12:29:14;4.85;;;1.10;;
59040;SDS011;44825;53.200;6.448;2023-07-31T12:31:41;3.08;;;1.23;;
59040;SDS011;44825;53.200;6.448;2023-07-31T12:34:16;3.95;;;1.25;;
59040;SDS011;44825;53.200;6.448;2023-07-31T12:36:43;3.90;;;1.20;;
59040;SDS011;44825;53.200;6.448;2023-07-31T12:39:09;4.10;;;1.30;;
59040;SDS011;44825;53.200;6.448;2023-07-31T12:41:35;4.90;;;1.50;;
59040;SDS011;44825;53.200;6.448;2023-07-31T12:44:02;3.97;;;1.30;;
59040;SDS011;44825;53.200;6.448;2023-07-31T12:46:28;5.85;;;1.27;;
59040;SDS011;44825;53.200;6.448;2023-07-31T12:48:54;3.83;;;1.23;;
59040;SDS011;44825;53.200;6.448;2023-07-31T12:51:21;3.38;;;1.52;;
59040;SDS011;44825;53.200;6.448;2023-07-31T12:53:47;4.30;;;1.50;;
59040;SDS011;44825;53.200;6.448;2023-07-31T12:56:13;6.28;;;1.90;;
59040;SDS011;44825;53.200;6.448;2023-07-31T12:58:39;3.85;;;1.40;;
59040;SDS011;44825;53.200;6.448;2023-07-31T13:01:05;5.95;;;2.35;;
59040;SDS011;44825;53.200;6.448;2023-07-31T13:03:31;6.82;;;1.90;;
59040;SDS011;44825;53.200;6.448;2023-07-31T13:05:57;7.32;;;2.03;;
59040;SDS011;44825;53.200;6.448;2023-07-31T13:08:23;9.63;;;2.10;;
59040;SDS011;44825;53.200;6.448;2023-07-31T13:10:49;9.68;;;2.40;;
59040;SDS011;44825;53.200;6.448;2023-07-31T13:13:18;6.15;;;2.13;;
59040;SDS011;44825;53.200;6.448;2023-07-31T13:15:48;8.52;;;2.20;;
59040;SDS011;44825;53.200;6.448;2023-07-31T13:18:14;8.57;;;2.60;;
59040;SDS011;44825;53.200;6.448;2023-07-31T13:20:40;8.60;;;2.30;;
59040;SDS011;44825;53.200;6.448;2023-07-31T13:23:06;7.63;;;2.17;;
59040;SDS011;44825;53.200;6.448;2023-07-31T13:25:32;10.02;;;2.30;;
59040;SDS011;44825;53.200;6.448;2023-07-31T13:27:58;7.88;;;2.00;;
59040;SDS011;44825;53.200;6.448;2023-07-31T13:30:24;6.20;;;1.95;;
59040;SDS011;44825;53.200;6.448;2023-07-31T13:32:50;6.72;;;2.00;;
59040;SDS011;44825;53.200;6.448;2023-07-31T13:35:16;7.00;;;1.83;;
59040;SDS011;44825;53.200;6.448;2023-07-31T13:37:42;6.95;;;1.98;;
59040;SDS011;44825;53.200;6.448;2023-07-31T13:40:08;8.70;;;2.47;;
59040;SDS011;44825;53.200;6.448;2023-07-31T13:42:34;8.02;;;2.53;;
59040;SDS011;44825;53.200;6.448;2023-07-31T13:45:00;12.60;;;2.55;;
59040;SDS011;44825;53.200;6.448;2023-07-31T13:47:26;10.73;;;2.95;;
59040;SDS011;44825;53.200;6.448;2023-07-31T13:49:53;10.20;;;2.80;;
59040;SDS011;44825;53.200;6.448;2023-07-31T13:52:19;10.02;;;3.15;;
59040;SDS011;44825;53.200;6.448;2023-07-31T13:54:45;6.88;;;2.50;;
59040;SDS011;44825;53.200;6.448;2023-07-31T13:57:11;11.43;;;3.20;;
59040;SDS011;44825;53.200;6.448;2023-07-31T13:59:37;9.18;;;2.90;;
59040;SDS011;44825;53.200;6.448;2023-07-31T14:02:03;12.98;;;3.00;;
59040;SDS011;44825;53.200;6.448;2023-07-31T14:04:29;11.73;;;3.15;;
59040;SDS011;44825;53.200;6.448;2023-07-31T14:06:55;8.32;;;2.47;;
59040;SDS011;44825;53.200;6.448;2023-07-31T14:09:22;9.90;;;2.80;;
59040;SDS011;44825;53.200;6.448;2023-07-31T14:11:48;10.32;;;3.20;;
59040;SDS011;44825;53.200;6.448;2023-07-31T14:14:14;10.65;;;3.17;;
59040;SDS011;44825;53.200;6.448;2023-07-31T14:16:40;10.20;;;3.13;;
59040;SDS011;44825;53.200;6.448;2023-07-31T14:19:09;10.23;;;3.42;;
59040;SDS011;44825;53.200;6.448;2023-07-31T14:21:35;9.50;;;3.15;;
59040;SDS011;44825;53.200;6.448;2023-07-31T14:24:01;9.57;;;2.70;;
59040;SDS011;44825;53.200;6.448;2023-07-31T14:26:27;10.88;;;3.58;;
59040;SDS011;44825;53.200;6.448;2023-07-31T14:28:53;6.50;;;3.20;;
59040;SDS011;44825;53.200;6.448;2023-07-31T14:31:19;10.13;;;3.28;;
59040;SDS011;44825;53.200;6.448;2023-07-31T14:33:45;8.07;;;2.83;;
59040;SDS011;44825;53.200;6.448;2023-07-31T14:36:11;9.23;;;2.70;;
59040;SDS011;44825;53.200;6.448;2023-07-31T14:38:38;10.48;;;3.22;;
59040;SDS011;44825;53.200;6.448;2023-07-31T14:41:04;11.55;;;3.70;;
59040;SDS011;44825;53.200;6.448;2023-07-31T14:43:30;11.00;;;3.40;;
59040;SDS011;44825;53.200;6.448;2023-07-31T14:45:57;12.88;;;4.18;;
59040;SDS011;44825;53.200;6.448;2023-07-31T14:48:25;10.05;;;3.67;;
59040;SDS011;44825;53.200;6.448;2023-07-31T14:50:51;13.10;;;3.92;;
59040;SDS011;44825;53.200;6.448;2023-07-31T14:53:17;9.90;;;3.47;;
59040;SDS011;44825;53.200;6.448;2023-07-31T14:55:43;9.25;;;3.20;;
59040;SDS011;44825;53.200;6.448;2023-07-31T14:58:09;14.73;;;3.72;;